Language: 

Nearby METAR Reports

METAR Reports

Hourly observations from airfields within 50 miles of this weather station

 

EGHH - Bournemouth Airp, United Kingdom
Distance from station: S 10mi, 17km
Updated: Sat, 21-Apr-2018 8:20am BST
Haze, Partly cloudy
Haze, Partly cloudy
 Wind from E
Wind: E 5 mph , 7 km/h
Temperature: 14°C
Dew Point: 12°C
Humidity: 88%
Barometer: 1021 hPa
Summary: Haze
Clouds: Partly Cloudy
Visibility: 4 miles , 7 km
2018/04/21 07:20 EGHH 210720Z 09004KT 7000 HZ NSC 14/12 Q1021
EGDM - Boscombe Down, United Kingdom
Distance from station: N 16mi, 26km
Updated: Sat, 21-Apr-2018 7:50am BST
Haze, Clear
Haze, Clear
 Wind from E
Wind: E 6 mph , 9 km/h
Temperature: 12°C
Dew Point: 10°C
Humidity: 88%
Barometer: 1021 hPa
Summary: Haze
Clouds: Clear
Visibility: 3 miles , 5 km
2018/04/21 06:50 EGDM 210650Z 09005KT 4500 HZ SKC 12/10 Q1021 GRN
 
EGVP - Middle Wallop, United Kingdom
Distance from station: NE 17mi, 27km
Updated: Sat, 21-Apr-2018 7:50am BST
Clear
Clear
 Wind from E
Wind: E 6 mph , 9 km/h
Temperature: 13°C
Dew Point: 10°C
Humidity: 82%
Barometer: 1021 hPa
Clouds: Clear
Visibility: 3 miles , 4 km
2018/04/21 06:50 EGVP 210650Z AUTO 08005KT 4400 // NCD 13/10 Q1021
EGHI - Southampton Wx C, United Kingdom
Distance from station: E 19mi, 31km
Updated: Sat, 21-Apr-2018 8:20am BST
Partly Cloudy
Partly Cloudy
 Wind from calm
Wind: Calm
Temperature: 13°C
Dew Point: 12°C
Humidity: 94%
Barometer: 1021 hPa
Clouds: Partly Cloudy
Visibility: 4 miles , 6 km
2018/04/21 07:20 EGHI 210720Z 00000KT 6000 NSC 13/12 Q1021
 
EGDY - Yeovilton (navy), United Kingdom
Distance from station: W 36mi, 58km
Updated: Sat, 21-Apr-2018 7:50am BST
Clear
Clear
 Wind from calm
Wind: Calm
Temperature: 9°C
Dew Point: 8°C
Humidity: 94%
Barometer: 1021 hPa
Clouds: Clear
Visibility: 6 miles , 10 km
2018/04/21 06:50 EGDY 210650Z AUTO 00000KT 9999 NCD 09/08 Q1021
EGVO - Odiham Raf, United Kingdom
Distance from station: ENE 42mi, 68km
Updated: Sat, 21-Apr-2018 7:50am BST
Haze, Clear
Haze, Clear
 Wind from NE
Wind: NE 3 mph , 6 km/h
Temperature: 12°C
Dew Point: 10°C
Humidity: 88%
Barometer: 1021 hPa
Summary: Haze
Clouds: Clear
Visibility: 2 miles , 4 km
2018/04/21 06:50 EGVO 210650Z AUTO 05003KT 4000 HZ NCD 12/10 Q1021

Metar display script from Saratoga-Weather.org

top of page button